sensor_id;sensor_type;location;lat;lon;timestamp;P1;durP1;ratioP1;P2;durP2;ratioP2
29984;SDS011;17387;42.690;23.328;2024-02-14T00:02:07;10.48;;;7.05;;
29984;SDS011;17387;42.690;23.328;2024-02-14T00:04:32;11.00;;;7.57;;
29984;SDS011;17387;42.690;23.328;2024-02-14T00:06:57;11.48;;;7.82;;
29984;SDS011;17387;42.690;23.328;2024-02-14T00:09:22;12.70;;;7.82;;
29984;SDS011;17387;42.690;23.328;2024-02-14T00:11:48;12.07;;;7.85;;
29984;SDS011;17387;42.690;23.328;2024-02-14T00:14:13;12.80;;;8.50;;
29984;SDS011;17387;42.690;23.328;2024-02-14T00:16:38;12.93;;;7.40;;
29984;SDS011;17387;42.690;23.328;2024-02-14T00:19:04;12.50;;;8.65;;
29984;SDS011;17387;42.690;23.328;2024-02-14T00:21:29;11.65;;;8.30;;
29984;SDS011;17387;42.690;23.328;2024-02-14T00:23:55;11.45;;;7.93;;
29984;SDS011;17387;42.690;23.328;2024-02-14T00:26:23;10.65;;;8.15;;
29984;SDS011;17387;42.690;23.328;2024-02-14T00:28:48;11.35;;;7.90;;
29984;SDS011;17387;42.690;23.328;2024-02-14T00:31:13;10.85;;;7.60;;
29984;SDS011;17387;42.690;23.328;2024-02-14T00:33:39;11.73;;;8.43;;
29984;SDS011;17387;42.690;23.328;2024-02-14T00:36:04;11.98;;;8.15;;
29984;SDS011;17387;42.690;23.328;2024-02-14T00:38:29;11.75;;;8.05;;
29984;SDS011;17387;42.690;23.328;2024-02-14T00:40:54;11.55;;;8.20;;
29984;SDS011;17387;42.690;23.328;2024-02-14T00:43:20;12.25;;;8.98;;
29984;SDS011;17387;42.690;23.328;2024-02-14T00:45:45;11.38;;;8.43;;
29984;SDS011;17387;42.690;23.328;2024-02-14T00:48:10;11.38;;;7.95;;
29984;SDS011;17387;42.690;23.328;2024-02-14T00:50:36;11.32;;;7.63;;
29984;SDS011;17387;42.690;23.328;2024-02-14T00:53:02;10.82;;;8.13;;
29984;SDS011;17387;42.690;23.328;2024-02-14T00:55:31;12.90;;;8.60;;
29984;SDS011;17387;42.690;23.328;2024-02-14T00:57:59;12.57;;;8.60;;
29984;SDS011;17387;42.690;23.328;2024-02-14T01:00:25;12.45;;;8.50;;
29984;SDS011;17387;42.690;23.328;2024-02-14T01:02:53;12.18;;;8.55;;
29984;SDS011;17387;42.690;23.328;2024-02-14T01:05:18;12.88;;;8.48;;
29984;SDS011;17387;42.690;23.328;2024-02-14T01:07:46;13.02;;;8.80;;
29984;SDS011;17387;42.690;23.328;2024-02-14T01:10:11;12.98;;;9.40;;
29984;SDS011;17387;42.690;23.328;2024-02-14T01:12:36;11.70;;;8.80;;
29984;SDS011;17387;42.690;23.328;2024-02-14T01:15:02;13.98;;;8.88;;
29984;SDS011;17387;42.690;23.328;2024-02-14T01:17:27;13.02;;;8.65;;
29984;SDS011;17387;42.690;23.328;2024-02-14T01:19:53;13.65;;;8.77;;
29984;SDS011;17387;42.690;23.328;2024-02-14T01:22:18;13.82;;;9.02;;
29984;SDS011;17387;42.690;23.328;2024-02-14T01:24:43;13.80;;;8.98;;
29984;SDS011;17387;42.690;23.328;2024-02-14T01:27:09;13.73;;;8.98;;
29984;SDS011;17387;42.690;23.328;2024-02-14T01:29:34;14.13;;;9.23;;
29984;SDS011;17387;42.690;23.328;2024-02-14T01:32:00;12.93;;;9.10;;
29984;SDS011;17387;42.690;23.328;2024-02-14T01:34:25;13.25;;;9.18;;
29984;SDS011;17387;42.690;23.328;2024-02-14T01:36:50;14.07;;;9.13;;
29984;SDS011;17387;42.690;23.328;2024-02-14T01:39:16;14.43;;;9.88;;
29984;SDS011;17387;42.690;23.328;2024-02-14T01:41:46;14.70;;;9.43;;
29984;SDS011;17387;42.690;23.328;2024-02-14T01:44:13;15.77;;;9.77;;
29984;SDS011;17387;42.690;23.328;2024-02-14T01:46:38;15.35;;;9.18;;
29984;SDS011;17387;42.690;23.328;2024-02-14T01:49:03;16.00;;;9.95;;
29984;SDS011;17387;42.690;23.328;2024-02-14T01:51:29;14.02;;;9.18;;
29984;SDS011;17387;42.690;23.328;2024-02-14T01:53:54;14.35;;;9.75;;
29984;SDS011;17387;42.690;23.328;2024-02-14T01:56:20;13.57;;;10.07;;
29984;SDS011;17387;42.690;23.328;2024-02-14T01:58:46;14.80;;;9.68;;
29984;SDS011;17387;42.690;23.328;2024-02-14T02:01:12;16.65;;;10.60;;
29984;SDS011;17387;42.690;23.328;2024-02-14T02:03:37;15.35;;;10.02;;
29984;SDS011;17387;42.690;23.328;2024-02-14T02:06:04;15.38;;;10.15;;
29984;SDS011;17387;42.690;23.328;2024-02-14T02:08:30;13.65;;;9.50;;
29984;SDS011;17387;42.690;23.328;2024-02-14T02:10:57;15.93;;;10.60;;
29984;SDS011;17387;42.690;23.328;2024-02-14T02:13:22;16.98;;;10.27;;
29984;SDS011;17387;42.690;23.328;2024-02-14T02:15:47;14.38;;;10.27;;
29984;SDS011;17387;42.690;23.328;2024-02-14T02:18:13;14.63;;;10.25;;
29984;SDS011;17387;42.690;23.328;2024-02-14T02:20:39;15.85;;;9.88;;
29984;SDS011;17387;42.690;23.328;2024-02-14T02:23:07;14.65;;;10.27;;
29984;SDS011;17387;42.690;23.328;2024-02-14T02:25:33;18.15;;;10.90;;
29984;SDS011;17387;42.690;23.328;2024-02-14T02:27:59;15.90;;;10.88;;
29984;SDS011;17387;42.690;23.328;2024-02-14T02:30:24;14.75;;;10.38;;
29984;SDS011;17387;42.690;23.328;2024-02-14T02:32:50;15.70;;;9.80;;
29984;SDS011;17387;42.690;23.328;2024-02-14T02:35:18;15.27;;;10.02;;
29984;SDS011;17387;42.690;23.328;2024-02-14T02:37:46;15.75;;;9.38;;
29984;SDS011;17387;42.690;23.328;2024-02-14T02:40:13;14.57;;;9.90;;
29984;SDS011;17387;42.690;23.328;2024-02-14T02:42:39;15.10;;;10.13;;
29984;SDS011;17387;42.690;23.328;2024-02-14T02:45:05;14.23;;;9.38;;
29984;SDS011;17387;42.690;23.328;2024-02-14T02:47:31;14.55;;;9.73;;
29984;SDS011;17387;42.690;23.328;2024-02-14T02:49:59;14.63;;;9.38;;
29984;SDS011;17387;42.690;23.328;2024-02-14T02:52:26;15.52;;;10.00;;
29984;SDS011;17387;42.690;23.328;2024-02-14T02:54:52;15.88;;;10.75;;
29984;SDS011;17387;42.690;23.328;2024-02-14T02:57:18;16.35;;;10.85;;
29984;SDS011;17387;42.690;23.328;2024-02-14T02:59:44;15.27;;;10.40;;
29984;SDS011;17387;42.690;23.328;2024-02-14T03:02:10;15.77;;;10.85;;
29984;SDS011;17387;42.690;23.328;2024-02-14T03:04:36;20.10;;;11.48;;
29984;SDS011;17387;42.690;23.328;2024-02-14T03:07:02;15.18;;;11.00;;
29984;SDS011;17387;42.690;23.328;2024-02-14T03:09:34;15.35;;;10.25;;
29984;SDS011;17387;42.690;23.328;2024-02-14T03:12:00;17.92;;;10.82;;
29984;SDS011;17387;42.690;23.328;2024-02-14T03:14:28;15.15;;;10.50;;
29984;SDS011;17387;42.690;23.328;2024-02-14T03:16:54;17.25;;;11.18;;
29984;SDS011;17387;42.690;23.328;2024-02-14T03:19:20;16.42;;;10.32;;
29984;SDS011;17387;42.690;23.328;2024-02-14T03:21:47;16.10;;;11.07;;
29984;SDS011;17387;42.690;23.328;2024-02-14T03:24:12;16.73;;;11.32;;
29984;SDS011;17387;42.690;23.328;2024-02-14T03:26:37;16.40;;;11.15;;
29984;SDS011;17387;42.690;23.328;2024-02-14T03:29:03;16.60;;;11.02;;
29984;SDS011;17387;42.690;23.328;2024-02-14T03:31:31;17.02;;;10.98;;
29984;SDS011;17387;42.690;23.328;2024-02-14T03:33:56;17.80;;;11.80;;
29984;SDS011;17387;42.690;23.328;2024-02-14T03:36:22;17.17;;;10.82;;
29984;SDS011;17387;42.690;23.328;2024-02-14T03:38:49;17.50;;;12.13;;
29984;SDS011;17387;42.690;23.328;2024-02-14T03:41:14;17.60;;;10.57;;
29984;SDS011;17387;42.690;23.328;2024-02-14T03:43:39;16.83;;;11.25;;
29984;SDS011;17387;42.690;23.328;2024-02-14T03:46:05;15.82;;;11.05;;
29984;SDS011;17387;42.690;23.328;2024-02-14T03:48:30;16.08;;;11.30;;
29984;SDS011;17387;42.690;23.328;2024-02-14T03:50:56;18.85;;;11.50;;
29984;SDS011;17387;42.690;23.328;2024-02-14T03:53:22;15.73;;;11.30;;
29984;SDS011;17387;42.690;23.328;2024-02-14T03:55:47;16.48;;;11.27;;
29984;SDS011;17387;42.690;23.328;2024-02-14T03:58:14;17.42;;;11.00;;
29984;SDS011;17387;42.690;23.328;2024-02-14T04:00:41;16.13;;;11.40;;
29984;SDS011;17387;42.690;23.328;2024-02-14T04:03:11;17.52;;;10.95;;
29984;SDS011;17387;42.690;23.328;2024-02-14T04:05:37;17.92;;;11.20;;
29984;SDS011;17387;42.690;23.328;2024-02-14T04:08:02;16.80;;;11.80;;
29984;SDS011;17387;42.690;23.328;2024-02-14T04:10:28;19.80;;;12.68;;
29984;SDS011;17387;42.690;23.328;2024-02-14T04:12:53;18.13;;;11.48;;
29984;SDS011;17387;42.690;23.328;2024-02-14T04:15:18;20.63;;;11.98;;
29984;SDS011;17387;42.690;23.328;2024-02-14T04:17:44;18.88;;;12.23;;
29984;SDS011;17387;42.690;23.328;2024-02-14T04:20:09;18.83;;;11.60;;
29984;SDS011;17387;42.690;23.328;2024-02-14T04:22:34;17.08;;;12.02;;
29984;SDS011;17387;42.690;23.328;2024-02-14T04:25:00;20.48;;;12.40;;
29984;SDS011;17387;42.690;23.328;2024-02-14T04:27:25;17.17;;;12.40;;
29984;SDS011;17387;42.690;23.328;2024-02-14T04:29:50;18.55;;;12.50;;
29984;SDS011;17387;42.690;23.328;2024-02-14T04:32:15;18.27;;;11.90;;
29984;SDS011;17387;42.690;23.328;2024-02-14T04:34:42;16.50;;;11.93;;
29984;SDS011;17387;42.690;23.328;2024-02-14T04:37:08;19.95;;;12.65;;
29984;SDS011;17387;42.690;23.328;2024-02-14T04:39:37;18.67;;;12.88;;
29984;SDS011;17387;42.690;23.328;2024-02-14T04:42:03;20.00;;;13.32;;
29984;SDS011;17387;42.690;23.328;2024-02-14T04:44:28;20.67;;;13.43;;
29984;SDS011;17387;42.690;23.328;2024-02-14T04:46:54;20.63;;;13.50;;
29984;SDS011;17387;42.690;23.328;2024-02-14T04:49:19;20.95;;;13.27;;
29984;SDS011;17387;42.690;23.328;2024-02-14T04:51:45;22.48;;;13.18;;
29984;SDS011;17387;42.690;23.328;2024-02-14T04:54:10;19.73;;;12.90;;
29984;SDS011;17387;42.690;23.328;2024-02-14T04:56:35;19.60;;;12.77;;
29984;SDS011;17387;42.690;23.328;2024-02-14T04:59:00;19.48;;;13.88;;
29984;SDS011;17387;42.690;23.328;2024-02-14T05:01:26;22.15;;;14.25;;
29984;SDS011;17387;42.690;23.328;2024-02-14T05:03:52;23.00;;;13.65;;
29984;SDS011;17387;42.690;23.328;2024-02-14T05:06:17;21.92;;;12.95;;
29984;SDS011;17387;42.690;23.328;2024-02-14T05:08:42;21.05;;;13.88;;
29984;SDS011;17387;42.690;23.328;2024-02-14T05:11:08;21.88;;;14.55;;
29984;SDS011;17387;42.690;23.328;2024-02-14T05:13:33;21.42;;;14.63;;
29984;SDS011;17387;42.690;23.328;2024-02-14T05:16:02;23.30;;;13.93;;
29984;SDS011;17387;42.690;23.328;2024-02-14T05:18:27;21.75;;;13.68;;
29984;SDS011;17387;42.690;23.328;2024-02-14T05:20:52;21.95;;;14.18;;
29984;SDS011;17387;42.690;23.328;2024-02-14T05:23:18;22.50;;;15.15;;
29984;SDS011;17387;42.690;23.328;2024-02-14T05:25:43;22.38;;;15.35;;
29984;SDS011;17387;42.690;23.328;2024-02-14T05:28:09;23.75;;;15.05;;
29984;SDS011;17387;42.690;23.328;2024-02-14T05:30:38;21.40;;;14.43;;
29984;SDS011;17387;42.690;23.328;2024-02-14T05:33:03;21.13;;;14.65;;
29984;SDS011;17387;42.690;23.328;2024-02-14T05:35:29;21.70;;;15.07;;
29984;SDS011;17387;42.690;23.328;2024-02-14T05:37:54;23.80;;;15.50;;
29984;SDS011;17387;42.690;23.328;2024-02-14T05:40:20;20.88;;;14.20;;
29984;SDS011;17387;42.690;23.328;2024-02-14T05:42:46;26.40;;;15.65;;
29984;SDS011;17387;42.690;23.328;2024-02-14T05:45:11;21.95;;;15.23;;
29984;SDS011;17387;42.690;23.328;2024-02-14T05:47:37;23.58;;;15.13;;
29984;SDS011;17387;42.690;23.328;2024-02-14T05:50:02;21.17;;;14.20;;
29984;SDS011;17387;42.690;23.328;2024-02-14T05:52:28;23.25;;;14.77;;
29984;SDS011;17387;42.690;23.328;2024-02-14T05:54:54;24.63;;;15.60;;
29984;SDS011;17387;42.690;23.328;2024-02-14T05:57:19;23.00;;;15.52;;
29984;SDS011;17387;42.690;23.328;2024-02-14T05:59:44;21.50;;;14.85;;
29984;SDS011;17387;42.690;23.328;2024-02-14T06:02:10;23.00;;;14.13;;
29984;SDS011;17387;42.690;23.328;2024-02-14T06:04:35;25.23;;;15.75;;
29984;SDS011;17387;42.690;23.328;2024-02-14T06:07:01;22.88;;;15.25;;
29984;SDS011;17387;42.690;23.328;2024-02-14T06:09:26;20.95;;;13.35;;
29984;SDS011;17387;42.690;23.328;2024-02-14T06:11:52;20.52;;;14.90;;
29984;SDS011;17387;42.690;23.328;2024-02-14T06:14:17;19.33;;;13.40;;
29984;SDS011;17387;42.690;23.328;2024-02-14T06:16:43;22.58;;;15.07;;
29984;SDS011;17387;42.690;23.328;2024-02-14T06:19:09;20.08;;;13.48;;
29984;SDS011;17387;42.690;23.328;2024-02-14T06:21:35;20.25;;;13.27;;
29984;SDS011;17387;42.690;23.328;2024-02-14T06:24:01;19.98;;;13.50;;
29984;SDS011;17387;42.690;23.328;2024-02-14T06:26:26;20.73;;;14.20;;
29984;SDS011;17387;42.690;23.328;2024-02-14T06:28:51;20.35;;;14.45;;
29984;SDS011;17387;42.690;23.328;2024-02-14T06:31:19;21.13;;;14.25;;
29984;SDS011;17387;42.690;23.328;2024-02-14T06:33:45;22.00;;;13.90;;
29984;SDS011;17387;42.690;23.328;2024-02-14T06:36:10;20.00;;;14.13;;
29984;SDS011;17387;42.690;23.328;2024-02-14T06:38:35;17.70;;;13.00;;
29984;SDS011;17387;42.690;23.328;2024-02-14T06:41:00;20.40;;;12.85;;
29984;SDS011;17387;42.690;23.328;2024-02-14T06:43:26;21.13;;;14.18;;
29984;SDS011;17387;42.690;23.328;2024-02-14T06:46:11;18.08;;;13.23;;
29984;SDS011;17387;42.690;23.328;2024-02-14T06:48:36;20.23;;;13.32;;
29984;SDS011;17387;42.690;23.328;2024-02-14T06:51:02;21.38;;;13.50;;
29984;SDS011;17387;42.690;23.328;2024-02-14T06:53:27;20.85;;;13.05;;
29984;SDS011;17387;42.690;23.328;2024-02-14T06:55:52;21.20;;;13.07;;
29984;SDS011;17387;42.690;23.328;2024-02-14T06:58:17;19.83;;;12.32;;
29984;SDS011;17387;42.690;23.328;2024-02-14T07:00:43;17.73;;;12.93;;
29984;SDS011;17387;42.690;23.328;2024-02-14T07:03:09;19.98;;;12.68;;
29984;SDS011;17387;42.690;23.328;2024-02-14T07:05:34;21.23;;;13.23;;
29984;SDS011;17387;42.690;23.328;2024-02-14T07:07:59;20.75;;;11.77;;
29984;SDS011;17387;42.690;23.328;2024-02-14T07:10:25;19.33;;;12.13;;
29984;SDS011;17387;42.690;23.328;2024-02-14T07:12:50;17.48;;;11.70;;
29984;SDS011;17387;42.690;23.328;2024-02-14T07:15:15;19.48;;;11.88;;
29984;SDS011;17387;42.690;23.328;2024-02-14T07:17:41;16.27;;;11.13;;
29984;SDS011;17387;42.690;23.328;2024-02-14T07:20:06;19.63;;;10.80;;
29984;SDS011;17387;42.690;23.328;2024-02-14T07:22:35;18.60;;;11.02;;
29984;SDS011;17387;42.690;23.328;2024-02-14T07:25:00;14.93;;;10.90;;
29984;SDS011;17387;42.690;23.328;2024-02-14T07:27:26;17.50;;;10.80;;
29984;SDS011;17387;42.690;23.328;2024-02-14T07:29:52;24.15;;;12.15;;
29984;SDS011;17387;42.690;23.328;2024-02-14T07:32:17;20.23;;;13.20;;
29984;SDS011;17387;42.690;23.328;2024-02-14T07:34:42;14.52;;;9.80;;
29984;SDS011;17387;42.690;23.328;2024-02-14T07:37:08;14.98;;;9.90;;
29984;SDS011;17387;42.690;23.328;2024-02-14T07:39:33;18.33;;;11.02;;
29984;SDS011;17387;42.690;23.328;2024-02-14T07:42:02;17.67;;;10.38;;
29984;SDS011;17387;42.690;23.328;2024-02-14T07:44:27;19.35;;;10.80;;
29984;SDS011;17387;42.690;23.328;2024-02-14T07:46:52;16.75;;;10.93;;
29984;SDS011;17387;42.690;23.328;2024-02-14T07:49:18;18.55;;;10.00;;
29984;SDS011;17387;42.690;23.328;2024-02-14T07:51:44;20.25;;;11.20;;
29984;SDS011;17387;42.690;23.328;2024-02-14T07:54:09;21.92;;;11.77;;
29984;SDS011;17387;42.690;23.328;2024-02-14T07:56:34;17.45;;;11.15;;
29984;SDS011;17387;42.690;23.328;2024-02-14T07:59:00;21.63;;;11.63;;
29984;SDS011;17387;42.690;23.328;2024-02-14T08:01:25;16.02;;;9.18;;
29984;SDS011;17387;42.690;23.328;2024-02-14T08:03:50;18.52;;;11.15;;
29984;SDS011;17387;42.690;23.328;2024-02-14T08:06:16;19.83;;;11.07;;
29984;SDS011;17387;42.690;23.328;2024-02-14T08:08:41;34.35;;;13.88;;
29984;SDS011;17387;42.690;23.328;2024-02-14T08:11:06;20.08;;;11.75;;
29984;SDS011;17387;42.690;23.328;2024-02-14T08:13:32;27.75;;;13.35;;
29984;SDS011;17387;42.690;23.328;2024-02-14T08:15:57;17.58;;;11.32;;
29984;SDS011;17387;42.690;23.328;2024-02-14T08:18:23;27.17;;;11.98;;
29984;SDS011;17387;42.690;23.328;2024-02-14T08:20:49;17.23;;;11.13;;
29984;SDS011;17387;42.690;23.328;2024-02-14T08:23:14;16.67;;;9.68;;
29984;SDS011;17387;42.690;23.328;2024-02-14T08:25:39;20.45;;;11.00;;
29984;SDS011;17387;42.690;23.328;2024-02-14T08:28:06;20.35;;;11.05;;
29984;SDS011;17387;42.690;23.328;2024-02-14T08:30:32;25.30;;;11.40;;
29984;SDS011;17387;42.690;23.328;2024-02-14T08:32:57;19.92;;;10.40;;
29984;SDS011;17387;42.690;23.328;2024-02-14T08:35:23;15.90;;;9.90;;
29984;SDS011;17387;42.690;23.328;2024-02-14T08:37:48;23.75;;;11.68;;
29984;SDS011;17387;42.690;23.328;2024-02-14T08:40:13;18.08;;;10.55;;
29984;SDS011;17387;42.690;23.328;2024-02-14T08:42:39;15.52;;;10.27;;
29984;SDS011;17387;42.690;23.328;2024-02-14T08:45:04;17.00;;;11.10;;
29984;SDS011;17387;42.690;23.328;2024-02-14T08:47:29;17.25;;;10.02;;
29984;SDS011;17387;42.690;23.328;2024-02-14T08:49:55;19.95;;;10.25;;
29984;SDS011;17387;42.690;23.328;2024-02-14T08:52:20;30.55;;;12.43;;
29984;SDS011;17387;42.690;23.328;2024-02-14T08:54:46;14.75;;;9.95;;
29984;SDS011;17387;42.690;23.328;2024-02-14T08:57:11;15.18;;;10.20;;
29984;SDS011;17387;42.690;23.328;2024-02-14T08:59:36;15.45;;;9.48;;
29984;SDS011;17387;42.690;23.328;2024-02-14T09:02:02;16.20;;;10.43;;
29984;SDS011;17387;42.690;23.328;2024-02-14T09:04:27;14.93;;;10.15;;
29984;SDS011;17387;42.690;23.328;2024-02-14T09:06:53;26.42;;;11.15;;
29984;SDS011;17387;42.690;23.328;2024-02-14T09:09:18;20.35;;;11.35;;
29984;SDS011;17387;42.690;23.328;2024-02-14T09:11:44;15.65;;;10.02;;
29984;SDS011;17387;42.690;23.328;2024-02-14T09:14:11;14.90;;;9.40;;
29984;SDS011;17387;42.690;23.328;2024-02-14T09:16:36;15.43;;;10.43;;
29984;SDS011;17387;42.690;23.328;2024-02-14T09:19:02;16.92;;;8.43;;
29984;SDS011;17387;42.690;23.328;2024-02-14T09:21:28;17.92;;;10.45;;
29984;SDS011;17387;42.690;23.328;2024-02-14T09:23:53;24.98;;;11.63;;
29984;SDS011;17387;42.690;23.328;2024-02-14T09:26:19;16.48;;;10.38;;
29984;SDS011;17387;42.690;23.328;2024-02-14T09:28:44;17.63;;;10.07;;
29984;SDS011;17387;42.690;23.328;2024-02-14T09:31:09;15.02;;;9.05;;
29984;SDS011;17387;42.690;23.328;2024-02-14T09:33:37;20.65;;;10.80;;
29984;SDS011;17387;42.690;23.328;2024-02-14T09:36:03;17.60;;;10.60;;
29984;SDS011;17387;42.690;23.328;2024-02-14T09:38:29;17.02;;;9.85;;
29984;SDS011;17387;42.690;23.328;2024-02-14T09:40:54;14.43;;;9.43;;
29984;SDS011;17387;42.690;23.328;2024-02-14T09:43:32;14.82;;;9.60;;
29984;SDS011;17387;42.690;23.328;2024-02-14T09:45:59;14.13;;;9.63;;
29984;SDS011;17387;42.690;23.328;2024-02-14T09:48:25;16.40;;;10.60;;
29984;SDS011;17387;42.690;23.328;2024-02-14T09:50:51;18.65;;;11.05;;
29984;SDS011;17387;42.690;23.328;2024-02-14T09:53:18;15.70;;;9.85;;
29984;SDS011;17387;42.690;23.328;2024-02-14T09:55:45;16.92;;;10.25;;
29984;SDS011;17387;42.690;23.328;2024-02-14T09:58:10;13.40;;;8.57;;
29984;SDS011;17387;42.690;23.328;2024-02-14T10:00:36;15.95;;;9.13;;
29984;SDS011;17387;42.690;23.328;2024-02-14T10:03:01;14.57;;;9.68;;
29984;SDS011;17387;42.690;23.328;2024-02-14T10:05:26;17.48;;;8.95;;
29984;SDS011;17387;42.690;23.328;2024-02-14T10:07:52;13.38;;;9.60;;
29984;SDS011;17387;42.690;23.328;2024-02-14T10:10:21;16.25;;;8.77;;
29984;SDS011;17387;42.690;23.328;2024-02-14T10:12:46;16.60;;;9.35;;
29984;SDS011;17387;42.690;23.328;2024-02-14T10:15:11;17.65;;;10.20;;
29984;SDS011;17387;42.690;23.328;2024-02-14T10:17:38;15.02;;;10.15;;
29984;SDS011;17387;42.690;23.328;2024-02-14T10:20:05;16.92;;;9.90;;
29984;SDS011;17387;42.690;23.328;2024-02-14T10:22:34;13.32;;;8.82;;
29984;SDS011;17387;42.690;23.328;2024-02-14T10:25:00;15.63;;;9.70;;
29984;SDS011;17387;42.690;23.328;2024-02-14T10:27:26;13.40;;;8.25;;
29984;SDS011;17387;42.690;23.328;2024-02-14T10:29:51;15.68;;;9.50;;
29984;SDS011;17387;42.690;23.328;2024-02-14T10:32:18;13.25;;;8.70;;
29984;SDS011;17387;42.690;23.328;2024-02-14T10:34:44;15.90;;;9.50;;
29984;SDS011;17387;42.690;23.328;2024-02-14T10:37:13;12.98;;;7.78;;
29984;SDS011;17387;42.690;23.328;2024-02-14T10:40:00;11.68;;;8.52;;
29984;SDS011;17387;42.690;23.328;2024-02-14T10:42:26;14.82;;;9.77;;
29984;SDS011;17387;42.690;23.328;2024-02-14T10:44:52;14.30;;;9.43;;
29984;SDS011;17387;42.690;23.328;2024-02-14T10:47:19;17.67;;;9.07;;
29984;SDS011;17387;42.690;23.328;2024-02-14T10:49:44;15.85;;;9.13;;
29984;SDS011;17387;42.690;23.328;2024-02-14T10:52:10;14.63;;;9.23;;
29984;SDS011;17387;42.690;23.328;2024-02-14T10:54:36;16.88;;;10.68;;
29984;SDS011;17387;42.690;23.328;2024-02-14T10:57:04;13.52;;;9.23;;
29984;SDS011;17387;42.690;23.328;2024-02-14T10:59:32;18.65;;;9.60;;
29984;SDS011;17387;42.690;23.328;2024-02-14T11:01:58;16.85;;;9.70;;
29984;SDS011;17387;42.690;23.328;2024-02-14T11:04:23;12.63;;;8.85;;
29984;SDS011;17387;42.690;23.328;2024-02-14T11:06:51;16.35;;;9.35;;
29984;SDS011;17387;42.690;23.328;2024-02-14T11:09:18;22.30;;;10.52;;
29984;SDS011;17387;42.690;23.328;2024-02-14T11:11:46;27.38;;;11.38;;
29984;SDS011;17387;42.690;23.328;2024-02-14T11:14:15;16.08;;;8.48;;
29984;SDS011;17387;42.690;23.328;2024-02-14T11:16:40;18.52;;;10.02;;
29984;SDS011;17387;42.690;23.328;2024-02-14T11:19:11;14.13;;;8.70;;
29984;SDS011;17387;42.690;23.328;2024-02-14T11:21:40;13.82;;;9.10;;
29984;SDS011;17387;42.690;23.328;2024-02-14T11:24:10;14.57;;;8.93;;
29984;SDS011;17387;42.690;23.328;2024-02-14T11:26:54;14.75;;;9.18;;
29984;SDS011;17387;42.690;23.328;2024-02-14T11:29:20;14.00;;;9.18;;
29984;SDS011;17387;42.690;23.328;2024-02-14T11:31:46;30.25;;;10.40;;
29984;SDS011;17387;42.690;23.328;2024-02-14T11:34:13;16.58;;;8.20;;
29984;SDS011;17387;42.690;23.328;2024-02-14T11:36:39;26.58;;;10.27;;
29984;SDS011;17387;42.690;23.328;2024-02-14T11:39:06;21.98;;;9.85;;
29984;SDS011;17387;42.690;23.328;2024-02-14T11:41:35;21.67;;;9.93;;
29984;SDS011;17387;42.690;23.328;2024-02-14T11:44:03;20.23;;;10.25;;
29984;SDS011;17387;42.690;23.328;2024-02-14T11:46:38;12.18;;;7.72;;
29984;SDS011;17387;42.690;23.328;2024-02-14T11:49:04;15.98;;;8.43;;
29984;SDS011;17387;42.690;23.328;2024-02-14T11:51:30;12.02;;;8.50;;
29984;SDS011;17387;42.690;23.328;2024-02-14T11:53:57;14.38;;;9.35;;
29984;SDS011;17387;42.690;23.328;2024-02-14T11:56:22;15.50;;;9.65;;
29984;SDS011;17387;42.690;23.328;2024-02-14T11:58:48;15.20;;;9.27;;
29984;SDS011;17387;42.690;23.328;2024-02-14T12:01:16;13.65;;;8.93;;
29984;SDS011;17387;42.690;23.328;2024-02-14T12:03:42;12.75;;;8.48;;
29984;SDS011;17387;42.690;23.328;2024-02-14T12:06:07;11.85;;;7.95;;
29984;SDS011;17387;42.690;23.328;2024-02-14T12:08:32;14.35;;;8.98;;
29984;SDS011;17387;42.690;23.328;2024-02-14T12:10:59;13.98;;;8.75;;
29984;SDS011;17387;42.690;23.328;2024-02-14T12:13:24;13.50;;;8.63;;
29984;SDS011;17387;42.690;23.328;2024-02-14T12:15:50;15.98;;;8.98;;
29984;SDS011;17387;42.690;23.328;2024-02-14T12:18:16;15.05;;;8.45;;
29984;SDS011;17387;42.690;23.328;2024-02-14T12:20:42;12.07;;;7.97;;
29984;SDS011;17387;42.690;23.328;2024-02-14T12:23:13;11.60;;;7.38;;
29984;SDS011;17387;42.690;23.328;2024-02-14T12:25:39;16.25;;;10.05;;
29984;SDS011;17387;42.690;23.328;2024-02-14T12:28:04;14.48;;;7.88;;
29984;SDS011;17387;42.690;23.328;2024-02-14T12:30:47;12.98;;;8.52;;
29984;SDS011;17387;42.690;23.328;2024-02-14T12:33:14;15.43;;;8.18;;
29984;SDS011;17387;42.690;23.328;2024-02-14T12:35:41;13.93;;;8.23;;
29984;SDS011;17387;42.690;23.328;2024-02-14T12:38:10;16.48;;;9.20;;
29984;SDS011;17387;42.690;23.328;2024-02-14T12:40:36;14.02;;;8.80;;
29984;SDS011;17387;42.690;23.328;2024-02-14T12:43:01;17.70;;;9.00;;
29984;SDS011;17387;42.690;23.328;2024-02-14T12:45:27;14.48;;;7.70;;
29984;SDS011;17387;42.690;23.328;2024-02-14T12:47:52;14.65;;;8.05;;
29984;SDS011;17387;42.690;23.328;2024-02-14T12:50:18;21.42;;;9.40;;
29984;SDS011;17387;42.690;23.328;2024-02-14T12:52:45;28.95;;;14.00;;
29984;SDS011;17387;42.690;23.328;2024-02-14T12:55:11;16.95;;;8.55;;
29984;SDS011;17387;42.690;23.328;2024-02-14T12:57:36;13.23;;;7.68;;
29984;SDS011;17387;42.690;23.328;2024-02-14T13:00:02;16.45;;;9.25;;
29984;SDS011;17387;42.690;23.328;2024-02-14T13:02:28;14.98;;;7.72;;
29984;SDS011;17387;42.690;23.328;2024-02-14T13:04:53;22.35;;;10.10;;
29984;SDS011;17387;42.690;23.328;2024-02-14T13:07:19;15.77;;;8.88;;
29984;SDS011;17387;42.690;23.328;2024-02-14T13:09:44;13.32;;;8.20;;
29984;SDS011;17387;42.690;23.328;2024-02-14T13:12:10;21.85;;;9.68;;
29984;SDS011;17387;42.690;23.328;2024-02-14T13:14:56;12.57;;;8.38;;
29984;SDS011;17387;42.690;23.328;2024-02-14T13:17:21;13.82;;;8.07;;
29984;SDS011;17387;42.690;23.328;2024-02-14T13:19:48;11.68;;;7.18;;
29984;SDS011;17387;42.690;23.328;2024-02-14T13:22:14;11.35;;;7.60;;
29984;SDS011;17387;42.690;23.328;2024-02-14T13:24:40;14.90;;;8.32;;
29984;SDS011;17387;42.690;23.328;2024-02-14T13:27:05;12.40;;;8.00;;
29984;SDS011;17387;42.690;23.328;2024-02-14T13:29:31;12.82;;;8.30;;
29984;SDS011;17387;42.690;23.328;2024-02-14T13:31:56;15.00;;;7.65;;
29984;SDS011;17387;42.690;23.328;2024-02-14T13:34:21;12.88;;;8.07;;
29984;SDS011;17387;42.690;23.328;2024-02-14T13:36:46;12.55;;;7.82;;
29984;SDS011;17387;42.690;23.328;2024-02-14T13:39:12;12.23;;;7.72;;
29984;SDS011;17387;42.690;23.328;2024-02-14T13:41:38;15.32;;;8.27;;
29984;SDS011;17387;42.690;23.328;2024-02-14T13:44:04;17.08;;;7.85;;
29984;SDS011;17387;42.690;23.328;2024-02-14T13:46:29;16.88;;;8.23;;
29984;SDS011;17387;42.690;23.328;2024-02-14T13:48:55;11.07;;;7.57;;
29984;SDS011;17387;42.690;23.328;2024-02-14T13:51:20;19.05;;;9.23;;
29984;SDS011;17387;42.690;23.328;2024-02-14T13:53:46;14.95;;;8.60;;
29984;SDS011;17387;42.690;23.328;2024-02-14T13:56:11;18.42;;;8.85;;
29984;SDS011;17387;42.690;23.328;2024-02-14T13:58:37;17.70;;;9.85;;
29984;SDS011;17387;42.690;23.328;2024-02-14T14:01:03;15.98;;;8.30;;
29984;SDS011;17387;42.690;23.328;2024-02-14T14:03:29;31.42;;;11.23;;
29984;SDS011;17387;42.690;23.328;2024-02-14T14:05:55;17.05;;;7.97;;
29984;SDS011;17387;42.690;23.328;2024-02-14T14:08:21;15.73;;;8.80;;